الصفحة الرئيسية
METAR-TAF:

METAR-TAF

مطار :

مطار لندن هيثرو, إنجلترا

دائرة عرض: 51-29N, خط طول: 000-27W, ارتفاع: 24 متر

مراقبة الطقس الحالي

تاريخ ووقت الإصدار 34 دقيقة قبل الساعة 22:20UTC
ريح 10 عقدة من الجنوب الغربي
درجة الحرارة 18°درجة مئوية
الرطوبة 83%
ضغط 1016 hPa
الرؤية 10 كم أو أكثر
غيوم مفككة على ارتفاع 3600 قدم

METAR: EGLL 152220Z AUTO 22010KT 9999 BKN036 18/15 Q1016 NOSIG

زمن: 23:54 (22:54 UTC)

توقعات

تاريخ ووقت الإصدار 6ساعات و 0 دقيقة قبل الساعة 16:54UTC
التوقعات صالحة من15 الساعة 18 UTC إلى 16 الساعة 24 UTC
ريح 12 عقدة من الجنوب الغربي
الرؤية 10 كم أو أكثر
غيوم مفككة على ارتفاع 3800 قدم
مؤقت
من 16 الساعة 07 UTC إلى 16 الساعة 15 UTC
الرؤية: 7000 متر
غيوم مفككة على ارتفاع 1200 قدم
مطر خفيف
نظرية الاحتمالات 40% :
مؤقت
من 16 الساعة 09 UTC إلى 16 الساعة 14 UTC
الرؤية: 4000 متر
غيوم مفككة على ارتفاع 800 قدم
مطر
أصبح
من 16 الساعة 15 UTC إلى 16 الساعة 18 UTC
ريح 6 عقدة من الغرب

TAF: EGLL 151654Z 1518/1624 22012KT 9999 BKN038 TEMPO 1607/1615 7000 -RA BKN012 PROB40 TEMPO 1609/1614 4000 RA BKN008 BECMG 1615/1618 28006KT

أرصاد الطقس والتوقعات من أكثر من 4000 مطار (تقارير الطقس للمطار METAR والتنبؤ بالطقس بالمطارTAF).

المحطات المتاحة هي النقط الصفراء والحمراء على الخريطة.

حرك المؤشر فوق النقطة لمعرفة اسم المحطة.

ثم انقر لمعرفة أرصاد وتوقعات الطقس.

لتغيير الخارطة: اضغط على الأزرار الخضراء مع رمز الصليب الأسود للتكبير. على الزر الأخضر مع شرطة للتصغير، أو على الأسهم الخضراء للخرائط المجاورة.


METAR-TAF: